sensor_id;sensor_type;location;lat;lon;timestamp;P1;durP1;ratioP1;P2;durP2;ratioP2
10473;SDS011;5284;50.446;7.904;2024-02-26T00:05:00;3.47;;;1.20;;
10473;SDS011;5284;50.446;7.904;2024-02-26T00:10:06;1.80;;;1.13;;
10473;SDS011;5284;50.446;7.904;2024-02-26T00:15:10;7.95;;;1.20;;
10473;SDS011;5284;50.446;7.904;2024-02-26T00:20:13;3.25;;;1.10;;
10473;SDS011;5284;50.446;7.904;2024-02-26T00:25:17;3.60;;;1.00;;
10473;SDS011;5284;50.446;7.904;2024-02-26T00:30:20;1.98;;;1.25;;
10473;SDS011;5284;50.446;7.904;2024-02-26T00:35:24;1.80;;;0.88;;
10473;SDS011;5284;50.446;7.904;2024-02-26T00:40:28;5.45;;;0.88;;
10473;SDS011;5284;50.446;7.904;2024-02-26T00:45:32;1.73;;;0.90;;
10473;SDS011;5284;50.446;7.904;2024-02-26T00:50:35;3.47;;;1.20;;
10473;SDS011;5284;50.446;7.904;2024-02-26T00:55:40;2.42;;;1.08;;
10473;SDS011;5284;50.446;7.904;2024-02-26T01:00:43;5.03;;;1.13;;
10473;SDS011;5284;50.446;7.904;2024-02-26T01:05:46;2.10;;;1.10;;
10473;SDS011;5284;50.446;7.904;2024-02-26T01:10:50;2.58;;;1.13;;
10473;SDS011;5284;50.446;7.904;2024-02-26T01:15:53;4.35;;;1.40;;
10473;SDS011;5284;50.446;7.904;2024-02-26T01:20:56;2.80;;;1.30;;
10473;SDS011;5284;50.446;7.904;2024-02-26T01:26:01;2.63;;;1.20;;
10473;SDS011;5284;50.446;7.904;2024-02-26T01:31:06;2.28;;;1.02;;
10473;SDS011;5284;50.446;7.904;2024-02-26T01:36:10;2.05;;;0.98;;
10473;SDS011;5284;50.446;7.904;2024-02-26T01:41:14;2.65;;;1.08;;
10473;SDS011;5284;50.446;7.904;2024-02-26T01:46:19;2.53;;;1.13;;
10473;SDS011;5284;50.446;7.904;2024-02-26T01:51:23;4.05;;;0.90;;
10473;SDS011;5284;50.446;7.904;2024-02-26T01:56:29;5.30;;;1.05;;
10473;SDS011;5284;50.446;7.904;2024-02-26T02:01:33;1.63;;;1.03;;
10473;SDS011;5284;50.446;7.904;2024-02-26T02:06:37;3.03;;;1.20;;
10473;SDS011;5284;50.446;7.904;2024-02-26T02:11:42;3.00;;;1.02;;
10473;SDS011;5284;50.446;7.904;2024-02-26T02:16:46;2.60;;;0.90;;
10473;SDS011;5284;50.446;7.904;2024-02-26T02:21:51;11.00;;;1.70;;
10473;SDS011;5284;50.446;7.904;2024-02-26T02:26:54;1.48;;;1.02;;
10473;SDS011;5284;50.446;7.904;2024-02-26T02:31:58;2.30;;;1.08;;
10473;SDS011;5284;50.446;7.904;2024-02-26T02:37:03;2.33;;;1.20;;
10473;SDS011;5284;50.446;7.904;2024-02-26T02:42:07;3.40;;;1.20;;
10473;SDS011;5284;50.446;7.904;2024-02-26T02:47:10;7.05;;;1.40;;
10473;SDS011;5284;50.446;7.904;2024-02-26T02:52:14;2.70;;;1.45;;
10473;SDS011;5284;50.446;7.904;2024-02-26T02:57:17;2.55;;;1.20;;
10473;SDS011;5284;50.446;7.904;2024-02-26T03:02:21;4.72;;;1.85;;
10473;SDS011;5284;50.446;7.904;2024-02-26T03:07:27;2.17;;;1.35;;
10473;SDS011;5284;50.446;7.904;2024-02-26T03:12:30;5.82;;;2.17;;
10473;SDS011;5284;50.446;7.904;2024-02-26T03:17:34;5.45;;;2.08;;
10473;SDS011;5284;50.446;7.904;2024-02-26T03:22:39;6.65;;;1.60;;
10473;SDS011;5284;50.446;7.904;2024-02-26T03:27:42;2.83;;;1.70;;
10473;SDS011;5284;50.446;7.904;2024-02-26T03:32:45;2.80;;;1.45;;
10473;SDS011;5284;50.446;7.904;2024-02-26T03:37:51;4.10;;;1.58;;
10473;SDS011;5284;50.446;7.904;2024-02-26T03:42:54;2.83;;;1.70;;
10473;SDS011;5284;50.446;7.904;2024-02-26T03:47:58;2.78;;;1.80;;
10473;SDS011;5284;50.446;7.904;2024-02-26T03:53:03;4.18;;;1.70;;
10473;SDS011;5284;50.446;7.904;2024-02-26T03:58:06;3.53;;;1.50;;
10473;SDS011;5284;50.446;7.904;2024-02-26T04:03:10;5.25;;;1.75;;
10473;SDS011;5284;50.446;7.904;2024-02-26T04:08:14;4.25;;;1.80;;
10473;SDS011;5284;50.446;7.904;2024-02-26T04:13:17;10.85;;;2.40;;
10473;SDS011;5284;50.446;7.904;2024-02-26T04:18:21;11.32;;;2.08;;
10473;SDS011;5284;50.446;7.904;2024-02-26T04:23:25;6.30;;;2.10;;
10473;SDS011;5284;50.446;7.904;2024-02-26T04:28:28;6.00;;;1.95;;
10473;SDS011;5284;50.446;7.904;2024-02-26T04:33:33;3.75;;;1.80;;
10473;SDS011;5284;50.446;7.904;2024-02-26T04:38:38;6.90;;;1.80;;
10473;SDS011;5284;50.446;7.904;2024-02-26T04:43:41;2.60;;;1.38;;
10473;SDS011;5284;50.446;7.904;2024-02-26T04:48:45;7.80;;;2.78;;
10473;SDS011;5284;50.446;7.904;2024-02-26T04:53:49;10.90;;;2.20;;
10473;SDS011;5284;50.446;7.904;2024-02-26T04:58:55;9.23;;;3.25;;
10473;SDS011;5284;50.446;7.904;2024-02-26T05:03:58;10.32;;;4.15;;
10473;SDS011;5284;50.446;7.904;2024-02-26T05:09:04;10.35;;;3.22;;
10473;SDS011;5284;50.446;7.904;2024-02-26T05:14:07;5.50;;;2.70;;
10473;SDS011;5284;50.446;7.904;2024-02-26T05:19:11;5.03;;;2.53;;
10473;SDS011;5284;50.446;7.904;2024-02-26T05:24:16;4.03;;;2.30;;
10473;SDS011;5284;50.446;7.904;2024-02-26T05:29:20;4.60;;;2.50;;
10473;SDS011;5284;50.446;7.904;2024-02-26T05:34:23;4.80;;;2.60;;
10473;SDS011;5284;50.446;7.904;2024-02-26T05:39:27;8.65;;;4.05;;
10473;SDS011;5284;50.446;7.904;2024-02-26T05:44:30;7.97;;;2.60;;
10473;SDS011;5284;50.446;7.904;2024-02-26T05:49:33;4.82;;;2.63;;
10473;SDS011;5284;50.446;7.904;2024-02-26T05:54:38;4.47;;;2.25;;
10473;SDS011;5284;50.446;7.904;2024-02-26T05:59:41;5.03;;;2.22;;
10473;SDS011;5284;50.446;7.904;2024-02-26T06:04:45;11.82;;;2.67;;
10473;SDS011;5284;50.446;7.904;2024-02-26T06:09:49;4.70;;;2.65;;
10473;SDS011;5284;50.446;7.904;2024-02-26T06:14:53;10.60;;;3.70;;
10473;SDS011;5284;50.446;7.904;2024-02-26T06:19:56;4.65;;;2.72;;
10473;SDS011;5284;50.446;7.904;2024-02-26T06:25:02;7.57;;;2.95;;
10473;SDS011;5284;50.446;7.904;2024-02-26T06:30:06;4.72;;;2.40;;
10473;SDS011;5284;50.446;7.904;2024-02-26T06:35:10;8.98;;;2.25;;
10473;SDS011;5284;50.446;7.904;2024-02-26T06:40:15;6.88;;;2.67;;
10473;SDS011;5284;50.446;7.904;2024-02-26T06:45:18;4.80;;;2.40;;
10473;SDS011;5284;50.446;7.904;2024-02-26T06:50:22;7.45;;;2.83;;
10473;SDS011;5284;50.446;7.904;2024-02-26T06:55:27;5.15;;;2.22;;
10473;SDS011;5284;50.446;7.904;2024-02-26T07:00:30;8.30;;;2.80;;
10473;SDS011;5284;50.446;7.904;2024-02-26T07:05:33;6.22;;;2.85;;
10473;SDS011;5284;50.446;7.904;2024-02-26T07:10:38;3.95;;;2.78;;
10473;SDS011;5284;50.446;7.904;2024-02-26T07:15:41;4.68;;;2.75;;
10473;SDS011;5284;50.446;7.904;2024-02-26T07:20:44;4.28;;;2.42;;
10473;SDS011;5284;50.446;7.904;2024-02-26T07:25:50;11.80;;;2.58;;
10473;SDS011;5284;50.446;7.904;2024-02-26T07:30:54;5.40;;;2.47;;
10473;SDS011;5284;50.446;7.904;2024-02-26T07:35:58;13.38;;;3.08;;
10473;SDS011;5284;50.446;7.904;2024-02-26T07:41:02;7.45;;;3.38;;
10473;SDS011;5284;50.446;7.904;2024-02-26T07:46:05;7.00;;;3.25;;
10473;SDS011;5284;50.446;7.904;2024-02-26T07:51:08;6.53;;;3.63;;
10473;SDS011;5284;50.446;7.904;2024-02-26T07:56:16;7.68;;;3.33;;
10473;SDS011;5284;50.446;7.904;2024-02-26T08:01:19;20.70;;;3.80;;
10473;SDS011;5284;50.446;7.904;2024-02-26T08:06:23;6.25;;;3.08;;
10473;SDS011;5284;50.446;7.904;2024-02-26T08:11:27;6.53;;;2.30;;
10473;SDS011;5284;50.446;7.904;2024-02-26T08:16:31;5.03;;;2.47;;
10473;SDS011;5284;50.446;7.904;2024-02-26T08:21:37;5.05;;;2.80;;
10473;SDS011;5284;50.446;7.904;2024-02-26T08:26:42;7.50;;;3.60;;
10473;SDS011;5284;50.446;7.904;2024-02-26T08:31:45;4.13;;;2.53;;
10473;SDS011;5284;50.446;7.904;2024-02-26T08:36:48;7.90;;;2.50;;
10473;SDS011;5284;50.446;7.904;2024-02-26T08:41:53;3.80;;;2.35;;
10473;SDS011;5284;50.446;7.904;2024-02-26T08:46:56;8.15;;;2.85;;
10473;SDS011;5284;50.446;7.904;2024-02-26T08:52:00;7.85;;;2.65;;
10473;SDS011;5284;50.446;7.904;2024-02-26T08:57:04;4.43;;;1.83;;
10473;SDS011;5284;50.446;7.904;2024-02-26T09:02:09;11.20;;;3.80;;
10473;SDS011;5284;50.446;7.904;2024-02-26T09:07:12;5.57;;;3.08;;
10473;SDS011;5284;50.446;7.904;2024-02-26T09:12:16;11.60;;;2.85;;
10473;SDS011;5284;50.446;7.904;2024-02-26T09:17:21;7.20;;;3.47;;
10473;SDS011;5284;50.446;7.904;2024-02-26T09:22:24;9.05;;;4.03;;
10473;SDS011;5284;50.446;7.904;2024-02-26T09:27:28;5.35;;;3.53;;
10473;SDS011;5284;50.446;7.904;2024-02-26T09:32:32;5.93;;;3.17;;
10473;SDS011;5284;50.446;7.904;2024-02-26T09:37:35;10.32;;;3.15;;
10473;SDS011;5284;50.446;7.904;2024-02-26T09:42:42;9.63;;;3.97;;
10473;SDS011;5284;50.446;7.904;2024-02-26T09:47:47;8.90;;;2.15;;
10473;SDS011;5284;50.446;7.904;2024-02-26T09:52:52;8.88;;;3.75;;
10473;SDS011;5284;50.446;7.904;2024-02-26T09:58:00;6.70;;;3.30;;
10473;SDS011;5284;50.446;7.904;2024-02-26T10:03:04;4.47;;;2.95;;
10473;SDS011;5284;50.446;7.904;2024-02-26T10:08:08;11.98;;;4.63;;
10473;SDS011;5284;50.446;7.904;2024-02-26T10:13:16;6.80;;;3.72;;
10473;SDS011;5284;50.446;7.904;2024-02-26T10:18:20;8.65;;;3.30;;
10473;SDS011;5284;50.446;7.904;2024-02-26T10:23:23;13.10;;;7.68;;
10473;SDS011;5284;50.446;7.904;2024-02-26T10:28:30;74.50;;;27.05;;
10473;SDS011;5284;50.446;7.904;2024-02-26T10:33:34;10.17;;;5.37;;
10473;SDS011;5284;50.446;7.904;2024-02-26T10:38:42;8.05;;;3.47;;
10473;SDS011;5284;50.446;7.904;2024-02-26T10:43:46;7.25;;;4.25;;
10473;SDS011;5284;50.446;7.904;2024-02-26T10:48:50;6.88;;;3.38;;
10473;SDS011;5284;50.446;7.904;2024-02-26T10:53:55;11.35;;;4.68;;
10473;SDS011;5284;50.446;7.904;2024-02-26T10:59:04;12.95;;;5.80;;
10473;SDS011;5284;50.446;7.904;2024-02-26T11:04:10;7.57;;;3.90;;
10473;SDS011;5284;50.446;7.904;2024-02-26T11:09:14;11.82;;;4.50;;
10473;SDS011;5284;50.446;7.904;2024-02-26T11:14:20;14.38;;;4.00;;
10473;SDS011;5284;50.446;7.904;2024-02-26T11:19:23;7.10;;;2.80;;
10473;SDS011;5284;50.446;7.904;2024-02-26T11:24:27;6.90;;;3.47;;
10473;SDS011;5284;50.446;7.904;2024-02-26T11:29:34;11.50;;;4.47;;
10473;SDS011;5284;50.446;7.904;2024-02-26T11:34:41;8.38;;;2.95;;
10473;SDS011;5284;50.446;7.904;2024-02-26T11:39:46;6.13;;;3.35;;
10473;SDS011;5284;50.446;7.904;2024-02-26T11:44:52;7.15;;;3.72;;
10473;SDS011;5284;50.446;7.904;2024-02-26T11:49:55;14.23;;;3.50;;
10473;SDS011;5284;50.446;7.904;2024-02-26T11:54:58;6.35;;;3.28;;
10473;SDS011;5284;50.446;7.904;2024-02-26T12:00:12;5.30;;;2.75;;
10473;SDS011;5284;50.446;7.904;2024-02-26T12:05:16;15.88;;;4.43;;
10473;SDS011;5284;50.446;7.904;2024-02-26T12:10:23;12.75;;;4.65;;
10473;SDS011;5284;50.446;7.904;2024-02-26T12:15:33;5.95;;;3.60;;
10473;SDS011;5284;50.446;7.904;2024-02-26T12:20:38;7.18;;;2.65;;
10473;SDS011;5284;50.446;7.904;2024-02-26T12:25:42;7.50;;;3.55;;
10473;SDS011;5284;50.446;7.904;2024-02-26T12:30:47;6.60;;;4.22;;
10473;SDS011;5284;50.446;7.904;2024-02-26T12:35:51;8.38;;;3.97;;
10473;SDS011;5284;50.446;7.904;2024-02-26T12:40:54;14.43;;;5.38;;
10473;SDS011;5284;50.446;7.904;2024-02-26T12:45:59;15.82;;;5.25;;
10473;SDS011;5284;50.446;7.904;2024-02-26T12:51:05;12.68;;;4.93;;
10473;SDS011;5284;50.446;7.904;2024-02-26T12:56:12;12.82;;;5.03;;
10473;SDS011;5284;50.446;7.904;2024-02-26T13:01:17;18.10;;;5.70;;
10473;SDS011;5284;50.446;7.904;2024-02-26T13:06:23;19.00;;;6.28;;
10473;SDS011;5284;50.446;7.904;2024-02-26T13:11:27;9.07;;;3.72;;
10473;SDS011;5284;50.446;7.904;2024-02-26T13:16:34;11.40;;;4.15;;
10473;SDS011;5284;50.446;7.904;2024-02-26T13:21:37;10.40;;;3.17;;
10473;SDS011;5284;50.446;7.904;2024-02-26T13:26:41;7.72;;;3.67;;
10473;SDS011;5284;50.446;7.904;2024-02-26T13:31:45;8.48;;;4.28;;
10473;SDS011;5284;50.446;7.904;2024-02-26T13:36:49;9.77;;;4.05;;
10473;SDS011;5284;50.446;7.904;2024-02-26T13:41:52;4.25;;;2.75;;
10473;SDS011;5284;50.446;7.904;2024-02-26T13:46:57;6.32;;;2.75;;
10473;SDS011;5284;50.446;7.904;2024-02-26T13:52:01;6.28;;;3.58;;
10473;SDS011;5284;50.446;7.904;2024-02-26T13:57:04;5.18;;;3.15;;
10473;SDS011;5284;50.446;7.904;2024-02-26T14:02:09;8.07;;;3.63;;
10473;SDS011;5284;50.446;7.904;2024-02-26T14:07:12;5.25;;;2.67;;
10473;SDS011;5284;50.446;7.904;2024-02-26T14:12:15;4.68;;;2.58;;
10473;SDS011;5284;50.446;7.904;2024-02-26T14:17:24;5.72;;;2.80;;
10473;SDS011;5284;50.446;7.904;2024-02-26T14:22:28;3.47;;;2.25;;
10473;SDS011;5284;50.446;7.904;2024-02-26T14:27:32;14.40;;;3.63;;
10473;SDS011;5284;50.446;7.904;2024-02-26T14:32:36;10.38;;;4.18;;
10473;SDS011;5284;50.446;7.904;2024-02-26T14:37:41;6.05;;;2.70;;
10473;SDS011;5284;50.446;7.904;2024-02-26T14:42:48;17.88;;;5.28;;
10473;SDS011;5284;50.446;7.904;2024-02-26T14:47:52;14.20;;;3.25;;
10473;SDS011;5284;50.446;7.904;2024-02-26T14:52:56;44.78;;;19.48;;
10473;SDS011;5284;50.446;7.904;2024-02-26T14:58:00;13.13;;;5.93;;
10473;SDS011;5284;50.446;7.904;2024-02-26T15:03:04;44.55;;;18.27;;
10473;SDS011;5284;50.446;7.904;2024-02-26T15:08:08;23.90;;;9.00;;
10473;SDS011;5284;50.446;7.904;2024-02-26T15:13:16;14.05;;;6.35;;
10473;SDS011;5284;50.446;7.904;2024-02-26T15:18:21;33.00;;;13.13;;
10473;SDS011;5284;50.446;7.904;2024-02-26T15:23:25;10.80;;;4.70;;
10473;SDS011;5284;50.446;7.904;2024-02-26T15:28:30;6.97;;;3.25;;
10473;SDS011;5284;50.446;7.904;2024-02-26T15:33:34;6.40;;;3.03;;
10473;SDS011;5284;50.446;7.904;2024-02-26T15:38:37;9.70;;;5.00;;
10473;SDS011;5284;50.446;7.904;2024-02-26T15:43:41;14.90;;;6.72;;
10473;SDS011;5284;50.446;7.904;2024-02-26T15:48:47;12.68;;;5.32;;
10473;SDS011;5284;50.446;7.904;2024-02-26T15:53:51;6.13;;;3.30;;
10473;SDS011;5284;50.446;7.904;2024-02-26T15:58:55;5.43;;;3.17;;
10473;SDS011;5284;50.446;7.904;2024-02-26T16:04:00;5.35;;;2.78;;
10473;SDS011;5284;50.446;7.904;2024-02-26T16:09:03;11.88;;;4.13;;
10473;SDS011;5284;50.446;7.904;2024-02-26T16:14:09;7.38;;;3.70;;
10473;SDS011;5284;50.446;7.904;2024-02-26T16:19:20;7.68;;;3.65;;
10473;SDS011;5284;50.446;7.904;2024-02-26T16:24:26;11.18;;;4.22;;
10473;SDS011;5284;50.446;7.904;2024-02-26T16:29:29;10.70;;;3.85;;
10473;SDS011;5284;50.446;7.904;2024-02-26T16:34:33;7.78;;;3.33;;
10473;SDS011;5284;50.446;7.904;2024-02-26T16:39:37;6.53;;;3.47;;
10473;SDS011;5284;50.446;7.904;2024-02-26T16:44:41;7.03;;;3.67;;
10473;SDS011;5284;50.446;7.904;2024-02-26T16:49:47;10.90;;;4.28;;
10473;SDS011;5284;50.446;7.904;2024-02-26T16:54:50;8.60;;;4.32;;
10473;SDS011;5284;50.446;7.904;2024-02-26T16:59:53;12.20;;;5.88;;
10473;SDS011;5284;50.446;7.904;2024-02-26T17:04:58;12.88;;;3.95;;
10473;SDS011;5284;50.446;7.904;2024-02-26T17:10:01;16.73;;;7.38;;
10473;SDS011;5284;50.446;7.904;2024-02-26T17:15:06;11.18;;;4.82;;
10473;SDS011;5284;50.446;7.904;2024-02-26T17:20:12;14.02;;;6.30;;
10473;SDS011;5284;50.446;7.904;2024-02-26T17:25:16;22.27;;;8.32;;
10473;SDS011;5284;50.446;7.904;2024-02-26T17:30:20;40.72;;;16.90;;
10473;SDS011;5284;50.446;7.904;2024-02-26T17:35:25;28.98;;;10.68;;
10473;SDS011;5284;50.446;7.904;2024-02-26T17:40:28;48.22;;;20.48;;
10473;SDS011;5284;50.446;7.904;2024-02-26T17:45:30;43.42;;;17.83;;
10473;SDS011;5284;50.446;7.904;2024-02-26T17:50:35;24.23;;;9.80;;
10473;SDS011;5284;50.446;7.904;2024-02-26T17:55:38;21.15;;;9.43;;
10473;SDS011;5284;50.446;7.904;2024-02-26T18:00:41;16.35;;;7.07;;
10473;SDS011;5284;50.446;7.904;2024-02-26T18:05:46;14.85;;;6.30;;
10473;SDS011;5284;50.446;7.904;2024-02-26T18:10:50;42.30;;;9.80;;
10473;SDS011;5284;50.446;7.904;2024-02-26T18:15:54;29.92;;;11.57;;
10473;SDS011;5284;50.446;7.904;2024-02-26T18:21:00;37.42;;;15.77;;
10473;SDS011;5284;50.446;7.904;2024-02-26T18:26:03;35.58;;;13.98;;
10473;SDS011;5284;50.446;7.904;2024-02-26T18:31:07;29.02;;;11.07;;
10473;SDS011;5284;50.446;7.904;2024-02-26T18:36:11;20.58;;;8.40;;
10473;SDS011;5284;50.446;7.904;2024-02-26T18:41:19;19.20;;;9.00;;
10473;SDS011;5284;50.446;7.904;2024-02-26T18:46:22;36.78;;;12.45;;
10473;SDS011;5284;50.446;7.904;2024-02-26T18:51:27;22.27;;;10.77;;
10473;SDS011;5284;50.446;7.904;2024-02-26T18:56:30;26.95;;;9.98;;
10473;SDS011;5284;50.446;7.904;2024-02-26T19:01:34;43.75;;;20.70;;
10473;SDS011;5284;50.446;7.904;2024-02-26T19:06:41;25.20;;;11.07;;
10473;SDS011;5284;50.446;7.904;2024-02-26T19:16:50;17.13;;;8.30;;
10473;SDS011;5284;50.446;7.904;2024-02-26T19:21:54;24.33;;;7.35;;
10473;SDS011;5284;50.446;7.904;2024-02-26T19:26:59;21.13;;;7.93;;
10473;SDS011;5284;50.446;7.904;2024-02-26T19:32:02;17.45;;;7.97;;
10473;SDS011;5284;50.446;7.904;2024-02-26T19:37:07;25.08;;;10.05;;
10473;SDS011;5284;50.446;7.904;2024-02-26T19:42:10;33.75;;;14.20;;
10473;SDS011;5284;50.446;7.904;2024-02-26T19:47:13;30.40;;;13.20;;
10473;SDS011;5284;50.446;7.904;2024-02-26T19:52:18;23.92;;;10.10;;
10473;SDS011;5284;50.446;7.904;2024-02-26T19:57:22;24.42;;;10.02;;
10473;SDS011;5284;50.446;7.904;2024-02-26T20:02:25;25.20;;;10.18;;
10473;SDS011;5284;50.446;7.904;2024-02-26T20:07:29;28.45;;;13.38;;
10473;SDS011;5284;50.446;7.904;2024-02-26T20:12:34;24.15;;;9.23;;
10473;SDS011;5284;50.446;7.904;2024-02-26T20:17:38;22.30;;;8.35;;
10473;SDS011;5284;50.446;7.904;2024-02-26T20:22:43;25.45;;;9.18;;
10473;SDS011;5284;50.446;7.904;2024-02-26T20:27:46;20.00;;;8.32;;
10473;SDS011;5284;50.446;7.904;2024-02-26T20:32:49;19.65;;;8.68;;
10473;SDS011;5284;50.446;7.904;2024-02-26T20:37:54;25.48;;;8.07;;
10473;SDS011;5284;50.446;7.904;2024-02-26T20:42:57;25.88;;;8.52;;
10473;SDS011;5284;50.446;7.904;2024-02-26T20:48:01;16.65;;;7.88;;
10473;SDS011;5284;50.446;7.904;2024-02-26T20:53:07;20.95;;;8.82;;
10473;SDS011;5284;50.446;7.904;2024-02-26T20:58:14;19.88;;;9.73;;
10473;SDS011;5284;50.446;7.904;2024-02-26T21:03:18;18.33;;;8.75;;
10473;SDS011;5284;50.446;7.904;2024-02-26T21:08:22;30.40;;;8.93;;
10473;SDS011;5284;50.446;7.904;2024-02-26T21:13:38;25.83;;;10.63;;
10473;SDS011;5284;50.446;7.904;2024-02-26T21:18:42;38.33;;;14.80;;
10473;SDS011;5284;50.446;7.904;2024-02-26T21:23:47;38.30;;;13.10;;
10473;SDS011;5284;50.446;7.904;2024-02-26T21:28:50;30.67;;;11.75;;
10473;SDS011;5284;50.446;7.904;2024-02-26T21:33:53;22.67;;;9.43;;
10473;SDS011;5284;50.446;7.904;2024-02-26T21:38:59;23.55;;;10.93;;
10473;SDS011;5284;50.446;7.904;2024-02-26T21:44:02;24.80;;;10.57;;
10473;SDS011;5284;50.446;7.904;2024-02-26T21:49:07;30.40;;;13.35;;
10473;SDS011;5284;50.446;7.904;2024-02-26T21:54:12;32.28;;;13.60;;
10473;SDS011;5284;50.446;7.904;2024-02-26T21:59:16;28.95;;;13.00;;
10473;SDS011;5284;50.446;7.904;2024-02-26T22:04:19;47.15;;;15.55;;
10473;SDS011;5284;50.446;7.904;2024-02-26T22:09:24;31.73;;;13.27;;
10473;SDS011;5284;50.446;7.904;2024-02-26T22:14:29;36.80;;;15.57;;
10473;SDS011;5284;50.446;7.904;2024-02-26T22:19:32;35.00;;;14.90;;
10473;SDS011;5284;50.446;7.904;2024-02-26T22:24:37;33.90;;;15.90;;
10473;SDS011;5284;50.446;7.904;2024-02-26T22:29:40;38.15;;;16.10;;
10473;SDS011;5284;50.446;7.904;2024-02-26T22:34:43;35.63;;;17.65;;
10473;SDS011;5284;50.446;7.904;2024-02-26T22:39:49;42.13;;;16.40;;
10473;SDS011;5284;50.446;7.904;2024-02-26T22:44:52;37.60;;;18.10;;
10473;SDS011;5284;50.446;7.904;2024-02-26T22:49:55;39.97;;;18.95;;
10473;SDS011;5284;50.446;7.904;2024-02-26T22:54:59;39.60;;;19.05;;
10473;SDS011;5284;50.446;7.904;2024-02-26T23:00:03;46.90;;;18.70;;
10473;SDS011;5284;50.446;7.904;2024-02-26T23:05:12;48.83;;;20.67;;
10473;SDS011;5284;50.446;7.904;2024-02-26T23:10:17;42.40;;;19.13;;
10473;SDS011;5284;50.446;7.904;2024-02-26T23:15:20;49.78;;;18.92;;
10473;SDS011;5284;50.446;7.904;2024-02-26T23:20:24;54.13;;;20.42;;
10473;SDS011;5284;50.446;7.904;2024-02-26T23:25:28;40.35;;;18.40;;
10473;SDS011;5284;50.446;7.904;2024-02-26T23:30:32;40.67;;;19.38;;
10473;SDS011;5284;50.446;7.904;2024-02-26T23:35:35;47.25;;;18.23;;
10473;SDS011;5284;50.446;7.904;2024-02-26T23:40:41;36.80;;;18.50;;
10473;SDS011;5284;50.446;7.904;2024-02-26T23:45:43;49.80;;;18.00;;
10473;SDS011;5284;50.446;7.904;2024-02-26T23:50:49;48.72;;;18.65;;
10473;SDS011;5284;50.446;7.904;2024-02-26T23:55:54;44.20;;;18.20;;
